createdAt,value
2023-02-12T00:02:20.368Z,52.7
2023-02-12T00:07:20.191Z,29.6
2023-02-12T00:12:20.163Z,22.5
2023-02-12T00:17:20.330Z,24.0
2023-02-12T00:22:20.157Z,40.1
2023-02-12T00:27:20.096Z,26.3
2023-02-12T00:32:20.866Z,86.5
2023-02-12T00:37:21.249Z,108.8
2023-02-12T00:42:20.069Z,38.3
2023-02-12T00:47:20.123Z,67.6
2023-02-12T00:52:20.064Z,56.7
2023-02-12T00:57:20.097Z,27.5
2023-02-12T01:02:20.121Z,28.3
2023-02-12T01:07:20.880Z,39.5
2023-02-12T01:12:20.855Z,449.4
2023-02-12T01:17:20.204Z,116.3
2023-02-12T01:22:22.488Z,55.7
2023-02-12T01:27:19.976Z,29.7
2023-02-12T01:32:20.167Z,21.9
2023-02-12T01:37:20.068Z,27.1
2023-02-12T01:42:20.221Z,38.3
2023-02-12T01:47:20.070Z,24.6
2023-02-12T01:52:21.004Z,81.8
2023-02-12T01:57:20.099Z,35.2
2023-02-12T02:02:19.991Z,27.5
2023-02-12T02:07:19.992Z,24.9
2023-02-12T02:12:20.233Z,25.1
2023-02-12T02:17:19.941Z,30.2
2023-02-12T02:22:19.899Z,28.3
2023-02-12T02:27:19.927Z,30.2
2023-02-12T02:32:19.886Z,34.6
2023-02-12T02:37:20.085Z,30.3
2023-02-12T02:42:19.854Z,27.7
2023-02-12T02:47:19.950Z,30.5
2023-02-12T02:52:20.056Z,28.2
2023-02-12T02:57:19.870Z,26.9
2023-02-12T03:02:19.828Z,29.6
2023-02-12T03:07:20.065Z,31.2
2023-02-12T03:12:19.791Z,32.8
2023-02-12T03:22:20.041Z,36.6
2023-02-12T03:27:19.811Z,32.2
2023-02-12T03:32:19.914Z,30.8
2023-02-12T03:37:19.894Z,32.8
2023-02-12T03:42:19.763Z,29.1
2023-02-12T03:47:19.973Z,27.8
2023-02-12T03:52:19.770Z,51.8
2023-02-12T03:57:19.872Z,35.3
2023-02-12T04:02:19.938Z,31.2
2023-02-12T04:07:19.882Z,30.4
2023-02-12T04:12:19.782Z,26.6
2023-02-12T04:17:21.037Z,33.9
2023-02-12T04:22:19.715Z,30.0
2023-02-12T04:27:19.793Z,33.4
2023-02-12T04:32:19.897Z,35.5
2023-02-12T04:37:19.830Z,36.3
2023-02-12T04:42:19.781Z,26.2
2023-02-12T04:47:19.946Z,27.1
2023-02-12T04:52:19.740Z,26.2
2023-02-12T04:57:19.670Z,27.3
2023-02-12T05:02:19.710Z,30.5
2023-02-12T05:07:19.745Z,32.1
2023-02-12T05:12:20.108Z,32.1
2023-02-12T05:17:19.585Z,28.4
2023-02-12T05:22:20.085Z,32.4
2023-02-12T05:27:19.746Z,30.3
2023-02-12T05:32:19.616Z,25.6
2023-02-12T05:37:19.683Z,31.2
2023-02-12T05:42:19.803Z,27.6
2023-02-12T05:47:19.636Z,23.5
2023-02-12T05:52:19.697Z,24.9
2023-02-12T05:57:19.489Z,20.8
2023-02-12T06:02:19.649Z,24.9
2023-02-12T06:07:19.572Z,20.1
2023-02-12T06:12:19.719Z,23.1
2023-02-12T06:17:19.546Z,20.1
2023-02-12T06:22:19.492Z,22.4
2023-02-12T06:27:19.813Z,17.1
2023-02-12T06:32:19.726Z,11.8
2023-02-12T06:37:19.519Z,11.5
2023-02-12T06:42:19.680Z,15.7
2023-02-12T06:47:19.534Z,11.6
2023-02-12T06:52:19.525Z,9.1
2023-02-12T06:57:19.579Z,8.7
2023-02-12T07:02:19.419Z,9.3
2023-02-12T07:07:19.445Z,9.3
2023-02-12T07:12:19.402Z,12.4
2023-02-12T07:17:19.515Z,12.3
2023-02-12T07:22:19.488Z,10.3
2023-02-12T07:27:19.432Z,12.1
2023-02-12T07:32:19.668Z,12.9
2023-02-12T07:37:20.628Z,14.5
2023-02-12T07:42:19.433Z,10.7
2023-02-12T07:47:19.321Z,11.9
2023-02-12T07:52:19.369Z,11.9
2023-02-12T07:57:19.359Z,7.9
2023-02-12T08:07:19.343Z,7.9
2023-02-12T08:12:19.315Z,6.5
2023-02-12T08:17:19.556Z,9.1
2023-02-12T08:22:19.388Z,8.4
2023-02-12T08:27:23.832Z,8.8
2023-02-12T08:32:19.508Z,9.6
2023-02-12T08:37:19.365Z,7.6
2023-02-12T08:42:19.308Z,8.7
2023-02-12T08:47:19.453Z,9.2
2023-02-12T08:52:19.223Z,11.0
2023-02-12T08:57:19.208Z,10.0
2023-02-12T09:02:19.373Z,9.8
2023-02-12T09:07:19.195Z,10.3
2023-02-12T09:12:26.562Z,10.7
2023-02-12T09:17:25.431Z,15.4
2023-02-12T09:22:25.420Z,16.0
2023-02-12T09:27:25.504Z,12.9
2023-02-12T09:32:25.463Z,11.8
2023-02-12T09:37:26.861Z,13.1
2023-02-12T09:42:25.642Z,12.9
2023-02-12T09:47:25.465Z,11.5
2023-02-12T09:52:26.379Z,13.4
2023-02-12T09:57:25.351Z,11.7
2023-02-12T10:02:25.274Z,15.1
2023-02-12T10:07:25.382Z,10.1
2023-02-12T10:12:25.502Z,14.7
2023-02-12T10:17:25.357Z,12.8
2023-02-12T10:22:26.461Z,10.4
2023-02-12T10:27:25.391Z,13.5
2023-02-12T10:32:25.294Z,8.8
2023-02-12T10:37:25.316Z,9.8
2023-02-12T10:42:25.531Z,10.1
2023-02-12T10:47:25.285Z,11.4
2023-02-12T10:57:29.498Z,13.4
2023-02-12T11:02:29.476Z,10.8
2023-02-12T11:07:29.528Z,11.6
2023-02-12T11:12:29.423Z,19.8
2023-02-12T11:17:29.387Z,19.7
2023-02-12T11:22:29.606Z,14.9
2023-02-12T11:27:29.413Z,35.8
2023-02-12T11:32:29.424Z,25.3
2023-02-12T11:37:29.745Z,14.7
2023-02-12T11:42:29.372Z,23.4
2023-02-12T11:47:29.384Z,33.1
2023-02-12T11:52:29.368Z,12.9
2023-02-12T11:57:29.297Z,16.4
2023-02-12T12:02:29.378Z,28.7
2023-02-12T12:07:29.320Z,21.6
2023-02-12T12:12:29.294Z,30.7
2023-02-12T12:17:29.537Z,25.9
2023-02-12T12:22:29.254Z,25.7
2023-02-12T12:27:29.313Z,63.8
2023-02-12T12:32:29.371Z,32.5
2023-02-12T12:37:29.275Z,14.8
2023-02-12T12:42:29.470Z,21.3
2023-02-12T12:47:29.524Z,10.4
2023-02-12T12:52:29.212Z,14.2
2023-02-12T12:57:29.268Z,12.2
2023-02-12T13:02:29.453Z,14.9
2023-02-12T13:07:30.991Z,17.2
2023-02-12T13:12:29.279Z,9.9
2023-02-12T13:17:29.398Z,7.9
2023-02-12T13:22:29.327Z,8.1
2023-02-12T13:27:29.184Z,12.7
2023-02-12T13:32:29.446Z,9.8
2023-02-12T13:37:29.160Z,8.2
2023-02-12T13:42:29.285Z,6.9
2023-02-12T13:47:29.322Z,11.3
2023-02-12T13:52:29.145Z,8.6
2023-02-12T13:57:29.116Z,6.8
2023-02-12T14:02:29.277Z,13.0
2023-02-12T14:07:29.098Z,9.8
2023-02-12T14:12:29.196Z,8.9
2023-02-12T14:17:29.274Z,14.2
2023-02-12T14:22:29.071Z,7.1
2023-02-12T14:27:29.140Z,8.1
2023-02-12T14:32:29.253Z,17.4
2023-02-12T14:37:29.099Z,8.8
2023-02-12T14:42:29.019Z,11.1
2023-02-12T14:47:51.933Z,10.9
2023-02-12T14:52:29.028Z,16.6
2023-02-12T14:57:29.038Z,9.5
2023-02-12T15:02:29.021Z,10.5
2023-02-12T15:07:29.171Z,11.7
2023-02-12T15:12:29.618Z,17.9
2023-02-12T15:17:29.141Z,14.1
2023-02-12T15:22:29.105Z,33.8
2023-02-12T15:27:28.965Z,17.2
2023-02-12T15:32:29.017Z,12.1
2023-02-12T15:37:29.234Z,17.2
2023-02-12T15:42:29.647Z,81.5
2023-02-12T15:47:28.966Z,19.5
2023-02-12T15:52:29.018Z,37.1
2023-02-12T15:57:29.123Z,18.7
2023-02-12T16:02:29.094Z,13.8
2023-02-12T16:07:28.963Z,6.9
2023-02-12T16:12:29.032Z,9.1
2023-02-12T16:17:28.946Z,8.1
2023-02-12T16:22:28.899Z,31.9
2023-02-12T16:27:29.045Z,8.3
2023-02-12T16:32:29.280Z,6.8
2023-02-12T16:37:29.546Z,7.9
2023-02-12T16:42:29.408Z,13.6
2023-02-12T16:47:29.006Z,34.1
2023-02-12T16:52:29.417Z,55.9
2023-02-12T16:57:29.240Z,92.2
2023-02-12T17:02:29.014Z,51.6
2023-02-12T17:07:29.169Z,27.9
2023-02-12T17:12:29.180Z,28.0
2023-02-12T17:17:30.687Z,56.0
2023-02-12T17:22:29.766Z,131.7
2023-02-12T17:27:29.536Z,235.2
2023-02-12T17:32:29.565Z,233.4
2023-02-12T17:37:29.505Z,223.8
2023-02-12T17:42:29.553Z,215.2
2023-02-12T17:47:29.507Z,292.1
2023-02-12T17:52:29.493Z,277.9
2023-02-12T17:57:29.817Z,366.2
2023-02-12T18:02:29.492Z,277.2
2023-02-12T18:07:29.369Z,296.9
2023-02-12T18:12:29.452Z,229.8
2023-02-12T18:17:30.164Z,153.9
2023-02-12T18:22:29.495Z,133.0
2023-02-12T18:27:29.513Z,131.0
2023-02-12T18:32:29.566Z,149.3
2023-02-12T18:37:29.501Z,131.4
2023-02-12T18:42:29.519Z,129.4
2023-02-12T18:47:29.443Z,116.3
2023-02-12T18:52:29.358Z,107.8
2023-02-12T18:57:29.470Z,101.7
2023-02-12T19:02:29.573Z,110.8
2023-02-12T19:07:29.765Z,119.2
2023-02-12T19:12:29.494Z,129.3
2023-02-12T19:17:29.436Z,133.3
2023-02-12T19:22:29.393Z,127.7
2023-02-12T19:27:29.350Z,125.7
2023-02-12T19:32:29.511Z,111.6
2023-02-12T19:37:30.186Z,107.0
2023-02-12T19:42:29.327Z,109.4
2023-02-12T19:47:29.604Z,119.0
2023-02-12T19:52:29.378Z,124.7
2023-02-12T19:57:29.275Z,133.9
2023-02-12T20:02:29.208Z,141.0
2023-02-12T20:07:29.346Z,136.9
2023-02-12T20:12:29.141Z,134.6
2023-02-12T20:17:29.346Z,133.8
2023-02-12T20:22:29.252Z,128.8
2023-02-12T20:27:29.237Z,122.3
2023-02-12T20:32:29.701Z,151.7
2023-02-12T20:37:29.798Z,198.0
2023-02-12T20:42:29.163Z,149.8
2023-02-12T20:47:29.165Z,153.1
2023-02-12T20:52:29.372Z,202.8
2023-02-12T20:57:29.152Z,193.3
2023-02-12T21:02:29.212Z,207.9
2023-02-12T21:07:29.578Z,183.7
2023-02-12T21:12:29.274Z,196.3
2023-02-12T21:17:29.082Z,230.4
2023-02-12T21:22:30.364Z,248.1
2023-02-12T21:27:29.135Z,200.4
2023-02-12T21:32:29.342Z,361.4
2023-02-12T21:37:29.132Z,279.2
2023-02-12T21:42:30.333Z,255.7
2023-02-12T21:47:29.023Z,360.8
2023-02-12T21:52:28.988Z,505.9
2023-02-12T21:57:28.990Z,296.4
2023-02-12T22:02:28.975Z,277.9
2023-02-12T22:07:30.545Z,268.7
2023-02-12T22:12:28.896Z,230.4
2023-02-12T22:17:28.899Z,233.2
2023-02-12T22:22:28.901Z,591.8
2023-02-12T22:27:28.944Z,659.7
2023-02-12T22:32:28.982Z,515.4
2023-02-12T22:37:29.044Z,298.4
2023-02-12T22:42:28.905Z,199.6
2023-02-12T22:47:28.844Z,197.3
2023-02-12T22:52:28.897Z,193.4
2023-02-12T22:57:28.833Z,198.3
2023-02-12T23:02:28.803Z,282.7
2023-02-12T23:07:28.801Z,228.6
2023-02-12T23:12:28.823Z,169.2
2023-02-12T23:17:28.796Z,157.3
2023-02-12T23:22:28.778Z,168.6
2023-02-12T23:27:28.747Z,163.0
2023-02-12T23:32:28.941Z,164.5
2023-02-12T23:37:28.858Z,175.1
2023-02-12T23:42:28.750Z,174.9
2023-02-12T23:47:28.840Z,166.5
2023-02-12T23:52:28.818Z,169.8
2023-02-12T23:57:28.926Z,171.0
